sensor_id;sensor_type;location;lat;lon;timestamp;P1;durP1;ratioP1;P2;durP2;ratioP2
15553;SDS011;7878;44.632;10.942;2023-06-22T00:01:57;18.50;;;12.85;;
15553;SDS011;7878;44.632;10.942;2023-06-22T00:04:23;13.20;;;11.43;;
15553;SDS011;7878;44.632;10.942;2023-06-22T00:06:49;17.15;;;12.43;;
15553;SDS011;7878;44.632;10.942;2023-06-22T00:09:15;17.65;;;13.27;;
15553;SDS011;7878;44.632;10.942;2023-06-22T00:11:40;13.82;;;12.40;;
15553;SDS011;7878;44.632;10.942;2023-06-22T00:14:06;16.13;;;12.70;;
15553;SDS011;7878;44.632;10.942;2023-06-22T00:16:32;16.73;;;14.82;;
15553;SDS011;7878;44.632;10.942;2023-06-22T00:18:58;19.65;;;17.48;;
15553;SDS011;7878;44.632;10.942;2023-06-22T00:21:28;24.08;;;19.08;;
15553;SDS011;7878;44.632;10.942;2023-06-22T00:23:55;22.15;;;19.83;;
15553;SDS011;7878;44.632;10.942;2023-06-22T00:26:22;22.77;;;20.13;;
15553;SDS011;7878;44.632;10.942;2023-06-22T00:28:48;23.35;;;20.67;;
15553;SDS011;7878;44.632;10.942;2023-06-22T00:31:14;25.75;;;20.30;;
15553;SDS011;7878;44.632;10.942;2023-06-22T00:33:39;21.27;;;18.92;;
15553;SDS011;7878;44.632;10.942;2023-06-22T00:36:05;23.58;;;17.60;;
15553;SDS011;7878;44.632;10.942;2023-06-22T00:38:32;23.73;;;16.35;;
15553;SDS011;7878;44.632;10.942;2023-06-22T00:40:58;26.30;;;16.50;;
15553;SDS011;7878;44.632;10.942;2023-06-22T00:43:24;20.67;;;16.33;;
15553;SDS011;7878;44.632;10.942;2023-06-22T00:45:50;20.48;;;16.02;;
15553;SDS011;7878;44.632;10.942;2023-06-22T00:48:15;20.63;;;15.88;;
15553;SDS011;7878;44.632;10.942;2023-06-22T00:50:41;18.80;;;16.80;;
15553;SDS011;7878;44.632;10.942;2023-06-22T00:53:08;18.35;;;16.20;;
15553;SDS011;7878;44.632;10.942;2023-06-22T00:55:35;21.65;;;16.50;;
15553;SDS011;7878;44.632;10.942;2023-06-22T00:58:05;20.25;;;16.00;;
15553;SDS011;7878;44.632;10.942;2023-06-22T01:00:35;17.15;;;15.40;;
15553;SDS011;7878;44.632;10.942;2023-06-22T01:03:01;20.48;;;16.33;;
15553;SDS011;7878;44.632;10.942;2023-06-22T01:05:28;16.95;;;14.77;;
15553;SDS011;7878;44.632;10.942;2023-06-22T01:16:00;18.20;;;15.10;;
15553;SDS011;7878;44.632;10.942;2023-06-22T01:18:26;20.75;;;14.55;;
15553;SDS011;7878;44.632;10.942;2023-06-22T01:20:55;18.48;;;15.27;;
15553;SDS011;7878;44.632;10.942;2023-06-22T01:23:31;20.63;;;14.70;;
15553;SDS011;7878;44.632;10.942;2023-06-22T01:29:11;16.77;;;15.00;;
15553;SDS011;7878;44.632;10.942;2023-06-22T01:31:38;17.30;;;13.57;;
15553;SDS011;7878;44.632;10.942;2023-06-22T01:34:06;15.32;;;13.20;;
15553;SDS011;7878;44.632;10.942;2023-06-22T01:36:33;15.07;;;12.88;;
15553;SDS011;7878;44.632;10.942;2023-06-22T01:39:00;21.45;;;13.80;;
15553;SDS011;7878;44.632;10.942;2023-06-22T01:41:29;14.48;;;12.77;;
15553;SDS011;7878;44.632;10.942;2023-06-22T01:43:56;16.63;;;13.05;;
15553;SDS011;7878;44.632;10.942;2023-06-22T01:46:22;15.05;;;12.13;;
15553;SDS011;7878;44.632;10.942;2023-06-22T01:48:49;15.85;;;12.15;;
15553;SDS011;7878;44.632;10.942;2023-06-22T01:51:15;15.00;;;12.23;;
15553;SDS011;7878;44.632;10.942;2023-06-22T01:53:41;20.27;;;14.02;;
15553;SDS011;7878;44.632;10.942;2023-06-22T01:56:07;16.00;;;12.35;;
15553;SDS011;7878;44.632;10.942;2023-06-22T01:58:33;19.00;;;14.43;;
15553;SDS011;7878;44.632;10.942;2023-06-22T02:01:12;16.95;;;13.50;;
15553;SDS011;7878;44.632;10.942;2023-06-22T02:03:44;16.90;;;12.48;;
15553;SDS011;7878;44.632;10.942;2023-06-22T02:06:31;15.65;;;12.63;;
15553;SDS011;7878;44.632;10.942;2023-06-22T02:09:02;20.58;;;15.52;;
15553;SDS011;7878;44.632;10.942;2023-06-22T02:11:34;20.02;;;15.50;;
15553;SDS011;7878;44.632;10.942;2023-06-22T02:14:01;18.73;;;14.38;;
15553;SDS011;7878;44.632;10.942;2023-06-22T02:16:27;20.20;;;14.35;;
15553;SDS011;7878;44.632;10.942;2023-06-22T02:18:56;27.25;;;15.77;;
15553;SDS011;7878;44.632;10.942;2023-06-22T02:21:23;19.45;;;15.88;;
15553;SDS011;7878;44.632;10.942;2023-06-22T02:23:48;22.05;;;16.13;;
15553;SDS011;7878;44.632;10.942;2023-06-22T02:26:16;18.60;;;15.98;;
15553;SDS011;7878;44.632;10.942;2023-06-22T02:28:42;23.45;;;17.25;;
15553;SDS011;7878;44.632;10.942;2023-06-22T02:31:09;24.17;;;17.58;;
15553;SDS011;7878;44.632;10.942;2023-06-22T02:33:34;17.90;;;15.80;;
15553;SDS011;7878;44.632;10.942;2023-06-22T02:36:00;19.90;;;15.52;;
15553;SDS011;7878;44.632;10.942;2023-06-22T02:38:30;19.75;;;15.25;;
15553;SDS011;7878;44.632;10.942;2023-06-22T02:40:59;18.52;;;14.77;;
15553;SDS011;7878;44.632;10.942;2023-06-22T02:43:26;21.52;;;16.23;;
15553;SDS011;7878;44.632;10.942;2023-06-22T02:45:51;19.25;;;15.98;;
15553;SDS011;7878;44.632;10.942;2023-06-22T02:48:17;18.17;;;16.20;;
15553;SDS011;7878;44.632;10.942;2023-06-22T02:50:43;20.58;;;16.23;;
15553;SDS011;7878;44.632;10.942;2023-06-22T02:53:09;19.45;;;16.42;;
15553;SDS011;7878;44.632;10.942;2023-06-22T02:55:34;18.38;;;16.30;;
15553;SDS011;7878;44.632;10.942;2023-06-22T02:58:00;20.60;;;18.35;;
15553;SDS011;7878;44.632;10.942;2023-06-22T03:00:30;26.42;;;17.50;;
15553;SDS011;7878;44.632;10.942;2023-06-22T03:02:57;22.92;;;17.70;;
15553;SDS011;7878;44.632;10.942;2023-06-22T03:05:23;20.48;;;16.92;;
15553;SDS011;7878;44.632;10.942;2023-06-22T03:07:49;20.65;;;17.73;;
15553;SDS011;7878;44.632;10.942;2023-06-22T03:10:16;21.10;;;17.02;;
15553;SDS011;7878;44.632;10.942;2023-06-22T03:12:42;20.33;;;18.00;;
15553;SDS011;7878;44.632;10.942;2023-06-22T03:15:09;19.40;;;16.65;;
15553;SDS011;7878;44.632;10.942;2023-06-22T03:17:36;20.60;;;17.25;;
15553;SDS011;7878;44.632;10.942;2023-06-22T03:20:06;23.98;;;17.55;;
15553;SDS011;7878;44.632;10.942;2023-06-22T03:22:40;19.13;;;16.10;;
15553;SDS011;7878;44.632;10.942;2023-06-22T03:25:09;18.08;;;16.02;;
15553;SDS011;7878;44.632;10.942;2023-06-22T03:27:38;18.30;;;16.40;;
15553;SDS011;7878;44.632;10.942;2023-06-22T03:30:08;18.48;;;16.58;;
15553;SDS011;7878;44.632;10.942;2023-06-22T03:32:35;17.80;;;15.90;;
15553;SDS011;7878;44.632;10.942;2023-06-22T03:35:01;19.95;;;17.33;;
15553;SDS011;7878;44.632;10.942;2023-06-22T03:37:27;23.27;;;17.02;;
15553;SDS011;7878;44.632;10.942;2023-06-22T03:39:54;18.25;;;16.38;;
15553;SDS011;7878;44.632;10.942;2023-06-22T03:42:19;21.27;;;16.95;;
15553;SDS011;7878;44.632;10.942;2023-06-22T03:44:46;24.67;;;16.63;;
15553;SDS011;7878;44.632;10.942;2023-06-22T03:47:12;21.73;;;16.75;;
15553;SDS011;7878;44.632;10.942;2023-06-22T03:49:38;19.13;;;16.85;;
15553;SDS011;7878;44.632;10.942;2023-06-22T03:52:03;23.45;;;17.50;;
15553;SDS011;7878;44.632;10.942;2023-06-22T03:54:30;19.42;;;16.88;;
15553;SDS011;7878;44.632;10.942;2023-06-22T03:56:58;20.98;;;17.15;;
15553;SDS011;7878;44.632;10.942;2023-06-22T03:59:24;22.30;;;17.40;;
15553;SDS011;7878;44.632;10.942;2023-06-22T04:01:50;18.65;;;16.80;;
15553;SDS011;7878;44.632;10.942;2023-06-22T04:04:19;21.70;;;16.77;;
15553;SDS011;7878;44.632;10.942;2023-06-22T04:06:45;22.13;;;17.27;;
15553;SDS011;7878;44.632;10.942;2023-06-22T04:09:10;23.77;;;16.67;;
15553;SDS011;7878;44.632;10.942;2023-06-22T04:11:37;24.08;;;16.90;;
15553;SDS011;7878;44.632;10.942;2023-06-22T04:14:02;20.83;;;15.68;;
15553;SDS011;7878;44.632;10.942;2023-06-22T04:16:28;16.73;;;14.82;;
15553;SDS011;7878;44.632;10.942;2023-06-22T04:18:54;18.90;;;15.43;;
15553;SDS011;7878;44.632;10.942;2023-06-22T04:21:19;19.55;;;14.85;;
15553;SDS011;7878;44.632;10.942;2023-06-22T04:23:45;20.75;;;14.00;;
15553;SDS011;7878;44.632;10.942;2023-06-22T04:26:11;20.45;;;14.30;;
15553;SDS011;7878;44.632;10.942;2023-06-22T04:28:38;18.70;;;13.93;;
15553;SDS011;7878;44.632;10.942;2023-06-22T04:31:04;20.30;;;14.73;;
15553;SDS011;7878;44.632;10.942;2023-06-22T04:33:31;18.73;;;14.57;;
15553;SDS011;7878;44.632;10.942;2023-06-22T04:35:57;18.13;;;14.35;;
15553;SDS011;7878;44.632;10.942;2023-06-22T04:38:24;23.85;;;14.27;;
15553;SDS011;7878;44.632;10.942;2023-06-22T04:40:50;19.67;;;14.10;;
15553;SDS011;7878;44.632;10.942;2023-06-22T04:43:16;16.35;;;14.63;;
15553;SDS011;7878;44.632;10.942;2023-06-22T04:45:42;18.00;;;13.80;;
15553;SDS011;7878;44.632;10.942;2023-06-22T04:48:08;19.02;;;13.82;;
15553;SDS011;7878;44.632;10.942;2023-06-22T04:50:35;17.27;;;14.27;;
15553;SDS011;7878;44.632;10.942;2023-06-22T04:53:03;20.95;;;14.10;;
15553;SDS011;7878;44.632;10.942;2023-06-22T04:55:30;24.17;;;14.10;;
15553;SDS011;7878;44.632;10.942;2023-06-22T04:57:57;16.90;;;12.40;;
15553;SDS011;7878;44.632;10.942;2023-06-22T05:00:29;23.77;;;12.32;;
15553;SDS011;7878;44.632;10.942;2023-06-22T05:02:56;16.83;;;12.52;;
15553;SDS011;7878;44.632;10.942;2023-06-22T05:05:25;18.67;;;13.18;;
15553;SDS011;7878;44.632;10.942;2023-06-22T05:07:51;16.15;;;13.32;;
15553;SDS011;7878;44.632;10.942;2023-06-22T05:10:24;17.55;;;12.57;;
15553;SDS011;7878;44.632;10.942;2023-06-22T05:12:50;19.58;;;12.63;;
15553;SDS011;7878;44.632;10.942;2023-06-22T05:15:16;18.27;;;12.60;;
15553;SDS011;7878;44.632;10.942;2023-06-22T05:17:44;16.00;;;12.00;;
15553;SDS011;7878;44.632;10.942;2023-06-22T05:20:10;14.07;;;12.10;;
15553;SDS011;7878;44.632;10.942;2023-06-22T05:22:37;19.38;;;12.77;;
15553;SDS011;7878;44.632;10.942;2023-06-22T05:25:04;15.75;;;11.60;;
15553;SDS011;7878;44.632;10.942;2023-06-22T05:27:33;15.23;;;12.35;;
15553;SDS011;7878;44.632;10.942;2023-06-22T05:29:58;19.33;;;12.60;;
15553;SDS011;7878;44.632;10.942;2023-06-22T05:32:24;17.08;;;11.77;;
15553;SDS011;7878;44.632;10.942;2023-06-22T05:34:50;17.45;;;13.05;;
15553;SDS011;7878;44.632;10.942;2023-06-22T05:37:15;15.43;;;11.57;;
15553;SDS011;7878;44.632;10.942;2023-06-22T05:39:41;17.90;;;12.00;;
15553;SDS011;7878;44.632;10.942;2023-06-22T05:42:07;19.23;;;10.70;;
15553;SDS011;7878;44.632;10.942;2023-06-22T05:44:33;19.27;;;10.88;;
15553;SDS011;7878;44.632;10.942;2023-06-22T05:46:59;18.30;;;10.55;;
15553;SDS011;7878;44.632;10.942;2023-06-22T05:49:24;17.02;;;10.52;;
15553;SDS011;7878;44.632;10.942;2023-06-22T05:51:55;12.70;;;10.43;;
15553;SDS011;7878;44.632;10.942;2023-06-22T05:54:21;17.40;;;10.35;;
15553;SDS011;7878;44.632;10.942;2023-06-22T05:56:47;12.45;;;10.27;;
15553;SDS011;7878;44.632;10.942;2023-06-22T05:59:13;11.20;;;9.82;;
15553;SDS011;7878;44.632;10.942;2023-06-22T06:01:39;14.13;;;10.02;;
15553;SDS011;7878;44.632;10.942;2023-06-22T06:04:05;13.50;;;10.20;;
15553;SDS011;7878;44.632;10.942;2023-06-22T06:06:33;17.80;;;9.93;;
15553;SDS011;7878;44.632;10.942;2023-06-22T06:09:00;17.85;;;10.43;;
15553;SDS011;7878;44.632;10.942;2023-06-22T06:11:26;14.57;;;10.40;;
15553;SDS011;7878;44.632;10.942;2023-06-22T06:13:51;18.02;;;10.77;;
15553;SDS011;7878;44.632;10.942;2023-06-22T06:16:17;23.10;;;10.18;;
15553;SDS011;7878;44.632;10.942;2023-06-22T06:18:43;14.00;;;10.45;;
15553;SDS011;7878;44.632;10.942;2023-06-22T06:21:08;20.73;;;10.98;;
15553;SDS011;7878;44.632;10.942;2023-06-22T06:23:34;16.35;;;10.23;;
15553;SDS011;7878;44.632;10.942;2023-06-22T06:26:00;19.63;;;10.70;;
15553;SDS011;7878;44.632;10.942;2023-06-22T06:28:26;15.55;;;10.43;;
15553;SDS011;7878;44.632;10.942;2023-06-22T06:30:52;15.00;;;10.38;;
15553;SDS011;7878;44.632;10.942;2023-06-22T06:33:18;13.75;;;9.60;;
15553;SDS011;7878;44.632;10.942;2023-06-22T06:35:46;15.88;;;10.00;;
15553;SDS011;7878;44.632;10.942;2023-06-22T06:38:11;14.32;;;9.50;;
15553;SDS011;7878;44.632;10.942;2023-06-22T06:40:37;13.93;;;9.05;;
15553;SDS011;7878;44.632;10.942;2023-06-22T06:43:03;19.77;;;8.68;;
15553;SDS011;7878;44.632;10.942;2023-06-22T06:45:28;17.15;;;9.90;;
15553;SDS011;7878;44.632;10.942;2023-06-22T06:47:56;19.10;;;9.43;;
15553;SDS011;7878;44.632;10.942;2023-06-22T06:50:22;19.00;;;9.95;;
15553;SDS011;7878;44.632;10.942;2023-06-22T06:52:47;14.48;;;9.32;;
15553;SDS011;7878;44.632;10.942;2023-06-22T06:55:15;18.30;;;8.23;;
15553;SDS011;7878;44.632;10.942;2023-06-22T06:57:41;18.63;;;8.98;;
15553;SDS011;7878;44.632;10.942;2023-06-22T07:00:08;15.68;;;8.43;;
15553;SDS011;7878;44.632;10.942;2023-06-22T07:02:40;15.02;;;8.50;;
15553;SDS011;7878;44.632;10.942;2023-06-22T07:05:10;20.17;;;8.30;;
15553;SDS011;7878;44.632;10.942;2023-06-22T07:07:36;17.38;;;7.88;;
15553;SDS011;7878;44.632;10.942;2023-06-22T07:10:03;13.88;;;8.07;;
15553;SDS011;7878;44.632;10.942;2023-06-22T07:12:32;13.85;;;8.45;;
15553;SDS011;7878;44.632;10.942;2023-06-22T07:15:05;15.02;;;8.32;;
15553;SDS011;7878;44.632;10.942;2023-06-22T07:17:38;14.63;;;8.15;;
15553;SDS011;7878;44.632;10.942;2023-06-22T07:20:06;11.25;;;8.13;;
15553;SDS011;7878;44.632;10.942;2023-06-22T07:22:37;13.68;;;7.95;;
15553;SDS011;7878;44.632;10.942;2023-06-22T07:25:03;16.40;;;8.82;;
15553;SDS011;7878;44.632;10.942;2023-06-22T07:27:39;15.18;;;8.82;;
15553;SDS011;7878;44.632;10.942;2023-06-22T07:30:10;16.05;;;8.40;;
15553;SDS011;7878;44.632;10.942;2023-06-22T07:32:36;16.45;;;8.38;;
15553;SDS011;7878;44.632;10.942;2023-06-22T07:35:02;15.10;;;8.02;;
15553;SDS011;7878;44.632;10.942;2023-06-22T07:37:29;9.98;;;8.07;;
15553;SDS011;7878;44.632;10.942;2023-06-22T07:39:55;15.40;;;9.27;;
15553;SDS011;7878;44.632;10.942;2023-06-22T07:42:26;19.38;;;9.10;;
15553;SDS011;7878;44.632;10.942;2023-06-22T07:44:53;14.80;;;7.95;;
15553;SDS011;7878;44.632;10.942;2023-06-22T07:47:19;14.23;;;8.48;;
15553;SDS011;7878;44.632;10.942;2023-06-22T07:49:48;15.82;;;9.05;;
15553;SDS011;7878;44.632;10.942;2023-06-22T07:52:13;22.98;;;9.00;;
15553;SDS011;7878;44.632;10.942;2023-06-22T07:54:39;24.00;;;9.13;;
15553;SDS011;7878;44.632;10.942;2023-06-22T07:57:05;29.08;;;9.05;;
15553;SDS011;7878;44.632;10.942;2023-06-22T07:59:31;15.25;;;9.43;;
15553;SDS011;7878;44.632;10.942;2023-06-22T08:01:56;17.65;;;8.77;;
15553;SDS011;7878;44.632;10.942;2023-06-22T08:04:22;14.43;;;8.60;;
15553;SDS011;7878;44.632;10.942;2023-06-22T08:06:48;16.75;;;10.15;;
15553;SDS011;7878;44.632;10.942;2023-06-22T08:09:14;15.52;;;9.63;;
15553;SDS011;7878;44.632;10.942;2023-06-22T08:11:40;19.67;;;8.77;;
15553;SDS011;7878;44.632;10.942;2023-06-22T08:14:06;12.60;;;7.78;;
15553;SDS011;7878;44.632;10.942;2023-06-22T08:16:31;14.55;;;8.02;;
15553;SDS011;7878;44.632;10.942;2023-06-22T08:18:57;12.88;;;7.38;;
15553;SDS011;7878;44.632;10.942;2023-06-22T08:21:23;10.65;;;7.50;;
15553;SDS011;7878;44.632;10.942;2023-06-22T08:23:48;28.00;;;8.68;;
15553;SDS011;7878;44.632;10.942;2023-06-22T08:26:14;14.68;;;8.32;;
15553;SDS011;7878;44.632;10.942;2023-06-22T08:28:40;13.88;;;7.63;;
15553;SDS011;7878;44.632;10.942;2023-06-22T08:31:06;16.38;;;7.30;;
15553;SDS011;7878;44.632;10.942;2023-06-22T08:33:31;14.18;;;7.40;;
15553;SDS011;7878;44.632;10.942;2023-06-22T08:35:58;15.73;;;7.70;;
15553;SDS011;7878;44.632;10.942;2023-06-22T08:38:24;18.40;;;7.97;;
15553;SDS011;7878;44.632;10.942;2023-06-22T08:40:50;13.55;;;8.50;;
15553;SDS011;7878;44.632;10.942;2023-06-22T08:43:15;20.77;;;8.43;;
15553;SDS011;7878;44.632;10.942;2023-06-22T08:45:41;17.95;;;8.15;;
15553;SDS011;7878;44.632;10.942;2023-06-22T08:48:07;14.60;;;7.85;;
15553;SDS011;7878;44.632;10.942;2023-06-22T08:50:32;15.05;;;7.80;;
15553;SDS011;7878;44.632;10.942;2023-06-22T08:52:58;12.88;;;7.65;;
15553;SDS011;7878;44.632;10.942;2023-06-22T08:55:24;10.45;;;8.07;;
15553;SDS011;7878;44.632;10.942;2023-06-22T08:57:50;14.93;;;7.82;;
15553;SDS011;7878;44.632;10.942;2023-06-22T09:00:16;13.07;;;7.40;;
15553;SDS011;7878;44.632;10.942;2023-06-22T09:02:43;15.18;;;7.22;;
15553;SDS011;7878;44.632;10.942;2023-06-22T09:05:10;17.75;;;8.00;;
15553;SDS011;7878;44.632;10.942;2023-06-22T09:07:35;15.27;;;8.07;;
15553;SDS011;7878;44.632;10.942;2023-06-22T09:10:01;19.10;;;8.05;;
15553;SDS011;7878;44.632;10.942;2023-06-22T09:12:29;39.33;;;9.98;;
15553;SDS011;7878;44.632;10.942;2023-06-22T09:14:57;19.02;;;8.70;;
15553;SDS011;7878;44.632;10.942;2023-06-22T09:17:25;12.68;;;8.07;;
15553;SDS011;7878;44.632;10.942;2023-06-22T09:19:51;14.73;;;9.57;;
15553;SDS011;7878;44.632;10.942;2023-06-22T09:22:16;17.67;;;11.10;;
15553;SDS011;7878;44.632;10.942;2023-06-22T09:24:42;16.75;;;10.55;;
15553;SDS011;7878;44.632;10.942;2023-06-22T09:27:08;26.35;;;12.40;;
15553;SDS011;7878;44.632;10.942;2023-06-22T09:29:34;20.02;;;12.70;;
15553;SDS011;7878;44.632;10.942;2023-06-22T09:31:59;18.88;;;12.52;;
15553;SDS011;7878;44.632;10.942;2023-06-22T09:34:25;58.30;;;15.23;;
15553;SDS011;7878;44.632;10.942;2023-06-22T09:36:51;19.42;;;11.43;;
15553;SDS011;7878;44.632;10.942;2023-06-22T09:39:17;16.10;;;9.23;;
15553;SDS011;7878;44.632;10.942;2023-06-22T09:41:43;17.23;;;9.63;;
15553;SDS011;7878;44.632;10.942;2023-06-22T09:44:09;17.27;;;9.52;;
15553;SDS011;7878;44.632;10.942;2023-06-22T09:46:35;19.95;;;9.10;;
15553;SDS011;7878;44.632;10.942;2023-06-22T09:49:00;24.42;;;10.45;;
15553;SDS011;7878;44.632;10.942;2023-06-22T09:51:26;56.38;;;12.55;;
15553;SDS011;7878;44.632;10.942;2023-06-22T09:53:52;15.07;;;9.52;;
15553;SDS011;7878;44.632;10.942;2023-06-22T09:56:21;13.40;;;8.00;;
15553;SDS011;7878;44.632;10.942;2023-06-22T09:58:47;21.65;;;10.25;;
15553;SDS011;7878;44.632;10.942;2023-06-22T10:01:15;27.63;;;9.60;;
15553;SDS011;7878;44.632;10.942;2023-06-22T10:03:41;17.02;;;9.05;;
15553;SDS011;7878;44.632;10.942;2023-06-22T10:06:07;11.75;;;8.80;;
15553;SDS011;7878;44.632;10.942;2023-06-22T10:08:34;44.92;;;10.73;;
15553;SDS011;7878;44.632;10.942;2023-06-22T10:11:00;14.65;;;8.90;;
15553;SDS011;7878;44.632;10.942;2023-06-22T10:13:26;16.23;;;8.88;;
15553;SDS011;7878;44.632;10.942;2023-06-22T10:15:52;20.80;;;8.10;;
15553;SDS011;7878;44.632;10.942;2023-06-22T10:18:18;16.45;;;8.85;;
15553;SDS011;7878;44.632;10.942;2023-06-22T10:20:46;11.82;;;9.00;;
15553;SDS011;7878;44.632;10.942;2023-06-22T10:23:14;16.00;;;9.80;;
15553;SDS011;7878;44.632;10.942;2023-06-22T10:25:39;16.08;;;9.27;;
15553;SDS011;7878;44.632;10.942;2023-06-22T10:28:05;14.82;;;9.82;;
15553;SDS011;7878;44.632;10.942;2023-06-22T10:30:31;18.50;;;9.55;;
15553;SDS011;7878;44.632;10.942;2023-06-22T10:32:57;24.15;;;9.65;;
15553;SDS011;7878;44.632;10.942;2023-06-22T10:35:23;17.92;;;9.57;;
15553;SDS011;7878;44.632;10.942;2023-06-22T10:37:49;26.98;;;10.32;;
15553;SDS011;7878;44.632;10.942;2023-06-22T10:40:16;14.02;;;9.82;;
15553;SDS011;7878;44.632;10.942;2023-06-22T10:42:43;14.63;;;10.50;;
15553;SDS011;7878;44.632;10.942;2023-06-22T10:45:10;14.07;;;9.63;;
15553;SDS011;7878;44.632;10.942;2023-06-22T10:47:36;13.93;;;9.30;;
15553;SDS011;7878;44.632;10.942;2023-06-22T10:50:02;18.30;;;10.05;;
15553;SDS011;7878;44.632;10.942;2023-06-22T10:52:28;17.42;;;9.23;;
15553;SDS011;7878;44.632;10.942;2023-06-22T10:54:54;16.65;;;9.07;;
15553;SDS011;7878;44.632;10.942;2023-06-22T10:57:19;16.92;;;10.02;;
15553;SDS011;7878;44.632;10.942;2023-06-22T10:59:46;20.20;;;10.32;;
15553;SDS011;7878;44.632;10.942;2023-06-22T11:02:12;15.82;;;9.95;;
15553;SDS011;7878;44.632;10.942;2023-06-22T11:04:38;17.67;;;9.82;;
15553;SDS011;7878;44.632;10.942;2023-06-22T11:07:04;14.05;;;9.32;;
15553;SDS011;7878;44.632;10.942;2023-06-22T11:09:29;17.20;;;9.30;;
15553;SDS011;7878;44.632;10.942;2023-06-22T11:11:56;15.25;;;10.05;;
15553;SDS011;7878;44.632;10.942;2023-06-22T11:14:23;16.38;;;9.50;;
15553;SDS011;7878;44.632;10.942;2023-06-22T11:16:50;22.60;;;9.35;;
15553;SDS011;7878;44.632;10.942;2023-06-22T11:19:16;15.10;;;9.25;;
15553;SDS011;7878;44.632;10.942;2023-06-22T11:21:42;19.73;;;9.38;;
15553;SDS011;7878;44.632;10.942;2023-06-22T11:24:07;22.55;;;9.25;;
15553;SDS011;7878;44.632;10.942;2023-06-22T11:26:33;10.00;;;8.30;;
15553;SDS011;7878;44.632;10.942;2023-06-22T11:28:59;13.45;;;9.20;;
15553;SDS011;7878;44.632;10.942;2023-06-22T11:31:25;20.40;;;8.90;;
15553;SDS011;7878;44.632;10.942;2023-06-22T11:33:51;13.15;;;8.45;;
15553;SDS011;7878;44.632;10.942;2023-06-22T11:36:16;11.90;;;8.85;;
15553;SDS011;7878;44.632;10.942;2023-06-22T11:38:42;33.72;;;10.43;;
15553;SDS011;7878;44.632;10.942;2023-06-22T11:41:08;16.42;;;8.77;;
15553;SDS011;7878;44.632;10.942;2023-06-22T11:43:35;23.15;;;9.38;;
15553;SDS011;7878;44.632;10.942;2023-06-22T11:46:02;13.15;;;8.93;;
15553;SDS011;7878;44.632;10.942;2023-06-22T11:48:28;10.50;;;8.88;;
15553;SDS011;7878;44.632;10.942;2023-06-22T11:50:54;17.65;;;8.98;;
15553;SDS011;7878;44.632;10.942;2023-06-22T11:53:20;11.23;;;8.70;;
15553;SDS011;7878;44.632;10.942;2023-06-22T11:55:47;11.52;;;8.77;;
15553;SDS011;7878;44.632;10.942;2023-06-22T11:58:14;19.42;;;8.98;;
15553;SDS011;7878;44.632;10.942;2023-06-22T12:00:39;15.57;;;9.65;;
15553;SDS011;7878;44.632;10.942;2023-06-22T12:03:06;16.02;;;9.80;;
15553;SDS011;7878;44.632;10.942;2023-06-22T12:05:32;13.25;;;9.10;;
15553;SDS011;7878;44.632;10.942;2023-06-22T12:07:58;13.75;;;8.85;;
15553;SDS011;7878;44.632;10.942;2023-06-22T12:10:25;14.95;;;8.80;;
15553;SDS011;7878;44.632;10.942;2023-06-22T12:12:53;12.38;;;8.30;;
15553;SDS011;7878;44.632;10.942;2023-06-22T12:15:19;12.90;;;8.23;;
15553;SDS011;7878;44.632;10.942;2023-06-22T12:17:45;15.73;;;9.02;;
15553;SDS011;7878;44.632;10.942;2023-06-22T12:20:11;12.45;;;8.38;;
15553;SDS011;7878;44.632;10.942;2023-06-22T12:22:36;17.48;;;8.18;;
15553;SDS011;7878;44.632;10.942;2023-06-22T12:25:03;11.90;;;7.75;;
15553;SDS011;7878;44.632;10.942;2023-06-22T12:27:29;17.27;;;9.35;;
15553;SDS011;7878;44.632;10.942;2023-06-22T12:29:55;11.77;;;8.98;;
15553;SDS011;7878;44.632;10.942;2023-06-22T12:32:21;15.82;;;8.60;;
15553;SDS011;7878;44.632;10.942;2023-06-22T12:34:50;13.90;;;8.48;;
15553;SDS011;7878;44.632;10.942;2023-06-22T12:37:15;16.85;;;8.70;;
15553;SDS011;7878;44.632;10.942;2023-06-22T12:39:41;16.58;;;8.93;;
15553;SDS011;7878;44.632;10.942;2023-06-22T12:42:07;11.68;;;8.60;;
15553;SDS011;7878;44.632;10.942;2023-06-22T12:44:43;14.00;;;8.45;;
15553;SDS011;7878;44.632;10.942;2023-06-22T12:47:08;16.48;;;8.85;;
15553;SDS011;7878;44.632;10.942;2023-06-22T12:49:34;17.80;;;10.13;;
15553;SDS011;7878;44.632;10.942;2023-06-22T12:52:01;13.02;;;9.02;;
15553;SDS011;7878;44.632;10.942;2023-06-22T12:54:27;17.27;;;9.00;;
15553;SDS011;7878;44.632;10.942;2023-06-22T12:56:54;22.75;;;8.82;;
15553;SDS011;7878;44.632;10.942;2023-06-22T12:59:20;28.23;;;9.40;;
15553;SDS011;7878;44.632;10.942;2023-06-22T13:01:46;14.02;;;8.68;;
15553;SDS011;7878;44.632;10.942;2023-06-22T13:04:12;18.63;;;9.25;;
15553;SDS011;7878;44.632;10.942;2023-06-22T13:06:40;17.33;;;8.20;;
15553;SDS011;7878;44.632;10.942;2023-06-22T13:09:06;19.85;;;9.10;;
15553;SDS011;7878;44.632;10.942;2023-06-22T13:11:32;16.15;;;8.18;;
15553;SDS011;7878;44.632;10.942;2023-06-22T13:13:58;18.40;;;8.15;;
15553;SDS011;7878;44.632;10.942;2023-06-22T13:16:23;11.88;;;7.72;;
15553;SDS011;7878;44.632;10.942;2023-06-22T13:18:49;29.30;;;9.20;;
15553;SDS011;7878;44.632;10.942;2023-06-22T13:21:15;28.42;;;10.02;;
15553;SDS011;7878;44.632;10.942;2023-06-22T13:23:40;13.73;;;8.60;;
15553;SDS011;7878;44.632;10.942;2023-06-22T13:26:06;23.13;;;9.00;;
15553;SDS011;7878;44.632;10.942;2023-06-22T13:28:32;23.10;;;8.98;;
15553;SDS011;7878;44.632;10.942;2023-06-22T13:30:58;24.65;;;8.65;;
15553;SDS011;7878;44.632;10.942;2023-06-22T13:33:24;25.30;;;9.57;;
15553;SDS011;7878;44.632;10.942;2023-06-22T13:35:49;14.52;;;7.97;;
15553;SDS011;7878;44.632;10.942;2023-06-22T13:38:15;19.60;;;7.93;;
15553;SDS011;7878;44.632;10.942;2023-06-22T13:40:42;17.60;;;7.45;;
15553;SDS011;7878;44.632;10.942;2023-06-22T13:43:08;15.20;;;8.38;;
15553;SDS011;7878;44.632;10.942;2023-06-22T13:45:33;13.38;;;7.47;;
15553;SDS011;7878;44.632;10.942;2023-06-22T13:47:59;10.43;;;6.90;;
15553;SDS011;7878;44.632;10.942;2023-06-22T13:50:25;21.27;;;7.38;;
15553;SDS011;7878;44.632;10.942;2023-06-22T13:52:51;10.65;;;6.97;;
15553;SDS011;7878;44.632;10.942;2023-06-22T13:55:16;15.68;;;6.70;;
15553;SDS011;7878;44.632;10.942;2023-06-22T13:57:42;10.00;;;7.28;;
15553;SDS011;7878;44.632;10.942;2023-06-22T14:00:08;21.23;;;7.55;;
15553;SDS011;7878;44.632;10.942;2023-06-22T14:02:37;24.75;;;7.45;;
15553;SDS011;7878;44.632;10.942;2023-06-22T14:05:04;10.52;;;7.07;;
15553;SDS011;7878;44.632;10.942;2023-06-22T14:07:31;18.05;;;7.75;;
15553;SDS011;7878;44.632;10.942;2023-06-22T14:09:56;17.98;;;7.05;;
15553;SDS011;7878;44.632;10.942;2023-06-22T14:12:23;17.73;;;7.43;;
15553;SDS011;7878;44.632;10.942;2023-06-22T14:14:49;13.48;;;6.85;;
15553;SDS011;7878;44.632;10.942;2023-06-22T14:17:15;11.77;;;7.03;;
15553;SDS011;7878;44.632;10.942;2023-06-22T14:19:40;9.95;;;7.30;;
15553;SDS011;7878;44.632;10.942;2023-06-22T14:22:06;14.05;;;7.13;;
15553;SDS011;7878;44.632;10.942;2023-06-22T14:24:31;11.90;;;6.70;;
15553;SDS011;7878;44.632;10.942;2023-06-22T14:26:57;11.48;;;6.55;;
15553;SDS011;7878;44.632;10.942;2023-06-22T14:29:23;12.90;;;7.07;;
15553;SDS011;7878;44.632;10.942;2023-06-22T14:31:49;13.52;;;6.47;;
15553;SDS011;7878;44.632;10.942;2023-06-22T14:34:15;27.85;;;7.15;;
15553;SDS011;7878;44.632;10.942;2023-06-22T14:36:41;25.63;;;8.40;;